sensor_id;sensor_type;location;lat;lon;timestamp;P1;durP1;ratioP1;P2;durP2;ratioP2
9445;SDS011;4761;49.490;10.908;2023-10-19T00:00:56;5.20;;;4.70;;
9445;SDS011;4761;49.490;10.908;2023-10-19T00:03:22;5.63;;;5.03;;
9445;SDS011;4761;49.490;10.908;2023-10-19T00:05:49;5.17;;;4.67;;
9445;SDS011;4761;49.490;10.908;2023-10-19T00:08:15;5.63;;;4.97;;
9445;SDS011;4761;49.490;10.908;2023-10-19T00:10:41;5.27;;;4.77;;
9445;SDS011;4761;49.490;10.908;2023-10-19T00:13:08;5.20;;;4.70;;
9445;SDS011;4761;49.490;10.908;2023-10-19T00:15:37;5.00;;;4.10;;
9445;SDS011;4761;49.490;10.908;2023-10-19T00:18:13;6.13;;;4.97;;
9445;SDS011;4761;49.490;10.908;2023-10-19T00:20:42;5.37;;;4.83;;
9445;SDS011;4761;49.490;10.908;2023-10-19T00:23:22;5.43;;;4.87;;
9445;SDS011;4761;49.490;10.908;2023-10-19T00:25:57;5.43;;;4.87;;
9445;SDS011;4761;49.490;10.908;2023-10-19T00:28:40;5.37;;;4.87;;
9445;SDS011;4761;49.490;10.908;2023-10-19T00:31:05;5.20;;;4.50;;
9445;SDS011;4761;49.490;10.908;2023-10-19T00:33:34;6.23;;;5.23;;
9445;SDS011;4761;49.490;10.908;2023-10-19T00:36:03;5.77;;;5.13;;
9445;SDS011;4761;49.490;10.908;2023-10-19T00:38:33;5.13;;;4.63;;
9445;SDS011;4761;49.490;10.908;2023-10-19T00:41:03;5.20;;;4.70;;
9445;SDS011;4761;49.490;10.908;2023-10-19T00:43:32;5.73;;;5.23;;
9445;SDS011;4761;49.490;10.908;2023-10-19T00:46:06;5.47;;;4.97;;
9445;SDS011;4761;49.490;10.908;2023-10-19T00:48:49;5.40;;;4.90;;
9445;SDS011;4761;49.490;10.908;2023-10-19T00:51:26;5.83;;;4.90;;
9445;SDS011;4761;49.490;10.908;2023-10-19T00:54:05;5.40;;;4.90;;
9445;SDS011;4761;49.490;10.908;2023-10-19T00:56:34;5.40;;;4.90;;
9445;SDS011;4761;49.490;10.908;2023-10-19T00:59:01;5.20;;;4.70;;
9445;SDS011;4761;49.490;10.908;2023-10-19T01:01:47;5.77;;;5.20;;
9445;SDS011;4761;49.490;10.908;2023-10-19T01:04:18;7.03;;;5.00;;
9445;SDS011;4761;49.490;10.908;2023-10-19T01:06:56;5.37;;;4.93;;
9445;SDS011;4761;49.490;10.908;2023-10-19T01:09:46;5.40;;;4.90;;
9445;SDS011;4761;49.490;10.908;2023-10-19T01:12:11;5.20;;;4.70;;
9445;SDS011;4761;49.490;10.908;2023-10-19T01:17:46;5.33;;;4.83;;
9445;SDS011;4761;49.490;10.908;2023-10-19T01:20:19;5.20;;;4.80;;
9445;SDS011;4761;49.490;10.908;2023-10-19T01:25:52;5.47;;;4.97;;
9445;SDS011;4761;49.490;10.908;2023-10-19T01:28:32;5.67;;;5.17;;
9445;SDS011;4761;49.490;10.908;2023-10-19T01:31:08;5.23;;;4.70;;
9445;SDS011;4761;49.490;10.908;2023-10-19T01:33:40;4.97;;;4.57;;
9445;SDS011;4761;49.490;10.908;2023-10-19T01:36:07;5.23;;;4.70;;
9445;SDS011;4761;49.490;10.908;2023-10-19T01:38:36;5.90;;;5.30;;
9445;SDS011;4761;49.490;10.908;2023-10-19T01:41:05;5.23;;;4.73;;
9445;SDS011;4761;49.490;10.908;2023-10-19T01:43:52;6.10;;;5.50;;
9445;SDS011;4761;49.490;10.908;2023-10-19T01:46:19;5.93;;;4.90;;
9445;SDS011;4761;49.490;10.908;2023-10-19T01:48:50;5.80;;;5.23;;
9445;SDS011;4761;49.490;10.908;2023-10-19T01:51:20;5.73;;;5.17;;
9445;SDS011;4761;49.490;10.908;2023-10-19T01:53:48;5.80;;;5.30;;
9445;SDS011;4761;49.490;10.908;2023-10-19T01:56:14;5.43;;;4.93;;
9445;SDS011;4761;49.490;10.908;2023-10-19T01:58:47;6.03;;;5.47;;
9445;SDS011;4761;49.490;10.908;2023-10-19T02:01:14;6.57;;;5.97;;
9445;SDS011;4761;49.490;10.908;2023-10-19T02:03:45;6.03;;;5.53;;
9445;SDS011;4761;49.490;10.908;2023-10-19T02:06:13;5.93;;;5.20;;
9445;SDS011;4761;49.490;10.908;2023-10-19T02:08:45;5.90;;;5.40;;
9445;SDS011;4761;49.490;10.908;2023-10-19T02:11:16;5.90;;;5.30;;
9445;SDS011;4761;49.490;10.908;2023-10-19T02:13:45;6.00;;;5.10;;
9445;SDS011;4761;49.490;10.908;2023-10-19T02:16:12;6.30;;;5.70;;
9445;SDS011;4761;49.490;10.908;2023-10-19T02:18:40;5.77;;;5.27;;
9445;SDS011;4761;49.490;10.908;2023-10-19T02:21:07;5.10;;;4.70;;
9445;SDS011;4761;49.490;10.908;2023-10-19T02:23:32;5.57;;;5.07;;
9445;SDS011;4761;49.490;10.908;2023-10-19T02:25:59;5.70;;;5.20;;
9445;SDS011;4761;49.490;10.908;2023-10-19T02:28:25;5.47;;;4.97;;
9445;SDS011;4761;49.490;10.908;2023-10-19T02:30:56;5.67;;;5.17;;
9445;SDS011;4761;49.490;10.908;2023-10-19T02:33:22;6.30;;;5.70;;
9445;SDS011;4761;49.490;10.908;2023-10-19T02:35:47;5.30;;;4.80;;
9445;SDS011;4761;49.490;10.908;2023-10-19T02:38:13;6.07;;;5.50;;
9445;SDS011;4761;49.490;10.908;2023-10-19T02:40:38;5.83;;;5.33;;
9445;SDS011;4761;49.490;10.908;2023-10-19T02:43:04;6.17;;;5.57;;
9445;SDS011;4761;49.490;10.908;2023-10-19T02:45:30;5.90;;;5.40;;
9445;SDS011;4761;49.490;10.908;2023-10-19T02:47:57;5.93;;;5.43;;
9445;SDS011;4761;49.490;10.908;2023-10-19T02:50:23;6.23;;;5.63;;
9445;SDS011;4761;49.490;10.908;2023-10-19T02:52:51;5.90;;;5.30;;
9445;SDS011;4761;49.490;10.908;2023-10-19T02:55:18;5.60;;;5.07;;
9445;SDS011;4761;49.490;10.908;2023-10-19T02:57:48;6.10;;;5.50;;
9445;SDS011;4761;49.490;10.908;2023-10-19T03:00:15;5.77;;;5.27;;
9445;SDS011;4761;49.490;10.908;2023-10-19T03:02:44;5.73;;;5.23;;
9445;SDS011;4761;49.490;10.908;2023-10-19T03:05:10;6.07;;;5.47;;
9445;SDS011;4761;49.490;10.908;2023-10-19T03:07:45;6.20;;;5.53;;
9445;SDS011;4761;49.490;10.908;2023-10-19T03:10:11;5.70;;;5.20;;
9445;SDS011;4761;49.490;10.908;2023-10-19T03:12:49;5.80;;;5.27;;
9445;SDS011;4761;49.490;10.908;2023-10-19T03:15:15;5.70;;;5.20;;
9445;SDS011;4761;49.490;10.908;2023-10-19T03:17:42;5.87;;;5.30;;
9445;SDS011;4761;49.490;10.908;2023-10-19T03:20:08;5.80;;;5.20;;
9445;SDS011;4761;49.490;10.908;2023-10-19T03:22:35;5.70;;;5.20;;
9445;SDS011;4761;49.490;10.908;2023-10-19T03:25:03;6.40;;;5.77;;
9445;SDS011;4761;49.490;10.908;2023-10-19T03:27:50;5.47;;;5.00;;
9445;SDS011;4761;49.490;10.908;2023-10-19T03:30:16;6.40;;;5.33;;
9445;SDS011;4761;49.490;10.908;2023-10-19T03:32:43;6.17;;;5.63;;
9445;SDS011;4761;49.490;10.908;2023-10-19T03:35:08;6.43;;;5.40;;
9445;SDS011;4761;49.490;10.908;2023-10-19T03:37:38;5.60;;;5.00;;
9445;SDS011;4761;49.490;10.908;2023-10-19T03:40:04;6.03;;;5.47;;
9445;SDS011;4761;49.490;10.908;2023-10-19T03:42:34;6.00;;;5.30;;
9445;SDS011;4761;49.490;10.908;2023-10-19T03:45:05;5.73;;;5.23;;
9445;SDS011;4761;49.490;10.908;2023-10-19T03:47:38;6.20;;;5.60;;
9445;SDS011;4761;49.490;10.908;2023-10-19T03:50:04;6.30;;;5.70;;
9445;SDS011;4761;49.490;10.908;2023-10-19T03:52:38;6.30;;;5.70;;
9445;SDS011;4761;49.490;10.908;2023-10-19T03:55:04;6.90;;;5.43;;
9445;SDS011;4761;49.490;10.908;2023-10-19T03:57:37;6.00;;;5.40;;
9445;SDS011;4761;49.490;10.908;2023-10-19T04:00:15;6.10;;;5.50;;
9445;SDS011;4761;49.490;10.908;2023-10-19T04:02:42;6.17;;;5.67;;
9445;SDS011;4761;49.490;10.908;2023-10-19T04:05:08;6.33;;;5.70;;
9445;SDS011;4761;49.490;10.908;2023-10-19T04:07:39;5.83;;;5.23;;
9445;SDS011;4761;49.490;10.908;2023-10-19T04:10:06;6.60;;;6.00;;
9445;SDS011;4761;49.490;10.908;2023-10-19T04:12:32;6.53;;;5.93;;
9445;SDS011;4761;49.490;10.908;2023-10-19T04:15:04;6.03;;;5.53;;
9445;SDS011;4761;49.490;10.908;2023-10-19T04:17:36;6.17;;;5.60;;
9445;SDS011;4761;49.490;10.908;2023-10-19T04:20:04;6.60;;;5.77;;
9445;SDS011;4761;49.490;10.908;2023-10-19T04:22:45;6.17;;;5.43;;
9445;SDS011;4761;49.490;10.908;2023-10-19T04:25:11;6.13;;;5.53;;
9445;SDS011;4761;49.490;10.908;2023-10-19T04:27:38;6.07;;;5.47;;
9445;SDS011;4761;49.490;10.908;2023-10-19T04:30:07;6.77;;;6.17;;
9445;SDS011;4761;49.490;10.908;2023-10-19T04:32:45;6.90;;;6.20;;
9445;SDS011;4761;49.490;10.908;2023-10-19T04:35:11;5.90;;;5.40;;
9445;SDS011;4761;49.490;10.908;2023-10-19T04:37:50;5.93;;;5.33;;
9445;SDS011;4761;49.490;10.908;2023-10-19T04:40:17;6.60;;;6.00;;
9445;SDS011;4761;49.490;10.908;2023-10-19T04:42:48;6.53;;;5.93;;
9445;SDS011;4761;49.490;10.908;2023-10-19T04:45:15;6.03;;;5.53;;
9445;SDS011;4761;49.490;10.908;2023-10-19T04:47:41;6.10;;;5.60;;
9445;SDS011;4761;49.490;10.908;2023-10-19T04:50:07;6.00;;;5.50;;
9445;SDS011;4761;49.490;10.908;2023-10-19T04:52:35;5.87;;;5.37;;
9445;SDS011;4761;49.490;10.908;2023-10-19T04:55:01;6.27;;;5.57;;
9445;SDS011;4761;49.490;10.908;2023-10-19T04:57:27;6.53;;;5.93;;
9445;SDS011;4761;49.490;10.908;2023-10-19T04:59:53;8.40;;;6.00;;
9445;SDS011;4761;49.490;10.908;2023-10-19T05:02:18;6.43;;;5.83;;
9445;SDS011;4761;49.490;10.908;2023-10-19T05:04:44;6.03;;;5.53;;
9445;SDS011;4761;49.490;10.908;2023-10-19T05:07:13;6.47;;;5.87;;
9445;SDS011;4761;49.490;10.908;2023-10-19T05:09:41;6.43;;;5.83;;
9445;SDS011;4761;49.490;10.908;2023-10-19T05:12:07;6.63;;;6.00;;
9445;SDS011;4761;49.490;10.908;2023-10-19T05:14:37;6.93;;;6.33;;
9445;SDS011;4761;49.490;10.908;2023-10-19T05:17:04;6.93;;;6.23;;
9445;SDS011;4761;49.490;10.908;2023-10-19T05:19:30;6.40;;;5.80;;
9445;SDS011;4761;49.490;10.908;2023-10-19T05:22:00;6.33;;;5.73;;
9445;SDS011;4761;49.490;10.908;2023-10-19T05:24:27;6.90;;;6.30;;
9445;SDS011;4761;49.490;10.908;2023-10-19T05:26:53;6.00;;;5.50;;
9445;SDS011;4761;49.490;10.908;2023-10-19T05:29:19;7.10;;;6.40;;
9445;SDS011;4761;49.490;10.908;2023-10-19T05:31:45;6.23;;;5.67;;
9445;SDS011;4761;49.490;10.908;2023-10-19T05:34:11;6.70;;;6.10;;
9445;SDS011;4761;49.490;10.908;2023-10-19T05:36:37;6.10;;;5.50;;
9445;SDS011;4761;49.490;10.908;2023-10-19T05:39:04;6.73;;;6.13;;
9445;SDS011;4761;49.490;10.908;2023-10-19T05:41:32;6.43;;;5.83;;
9445;SDS011;4761;49.490;10.908;2023-10-19T05:43:59;7.03;;;6.33;;
9445;SDS011;4761;49.490;10.908;2023-10-19T05:46:24;6.17;;;5.67;;
9445;SDS011;4761;49.490;10.908;2023-10-19T05:48:50;6.50;;;5.90;;
9445;SDS011;4761;49.490;10.908;2023-10-19T05:51:17;6.10;;;5.50;;
9445;SDS011;4761;49.490;10.908;2023-10-19T05:53:43;6.17;;;5.67;;
9445;SDS011;4761;49.490;10.908;2023-10-19T05:56:09;6.47;;;5.87;;
9445;SDS011;4761;49.490;10.908;2023-10-19T05:58:37;6.63;;;6.03;;
9445;SDS011;4761;49.490;10.908;2023-10-19T06:01:03;6.80;;;6.10;;
9445;SDS011;4761;49.490;10.908;2023-10-19T06:03:28;6.63;;;6.03;;
9445;SDS011;4761;49.490;10.908;2023-10-19T06:05:55;6.10;;;5.60;;
9445;SDS011;4761;49.490;10.908;2023-10-19T06:08:24;6.10;;;5.53;;
9445;SDS011;4761;49.490;10.908;2023-10-19T06:10:50;6.07;;;5.57;;
9445;SDS011;4761;49.490;10.908;2023-10-19T06:13:17;5.80;;;5.30;;
9445;SDS011;4761;49.490;10.908;2023-10-19T06:15:42;6.23;;;5.63;;
9445;SDS011;4761;49.490;10.908;2023-10-19T06:18:08;6.20;;;5.70;;
9445;SDS011;4761;49.490;10.908;2023-10-19T06:20:35;6.57;;;5.97;;
9445;SDS011;4761;49.490;10.908;2023-10-19T06:23:01;6.70;;;6.10;;
9445;SDS011;4761;49.490;10.908;2023-10-19T06:25:32;6.17;;;5.57;;
9445;SDS011;4761;49.490;10.908;2023-10-19T06:27:59;6.00;;;5.50;;
9445;SDS011;4761;49.490;10.908;2023-10-19T06:30:26;5.83;;;5.23;;
9445;SDS011;4761;49.490;10.908;2023-10-19T06:32:56;6.53;;;6.03;;
9445;SDS011;4761;49.490;10.908;2023-10-19T06:35:25;7.07;;;6.43;;
9445;SDS011;4761;49.490;10.908;2023-10-19T06:37:52;6.03;;;5.53;;
9445;SDS011;4761;49.490;10.908;2023-10-19T06:40:22;6.17;;;5.57;;
9445;SDS011;4761;49.490;10.908;2023-10-19T06:42:48;6.10;;;5.50;;
9445;SDS011;4761;49.490;10.908;2023-10-19T06:45:14;6.40;;;5.90;;
9445;SDS011;4761;49.490;10.908;2023-10-19T06:47:41;6.37;;;5.83;;
9445;SDS011;4761;49.490;10.908;2023-10-19T06:50:12;6.60;;;6.00;;
9445;SDS011;4761;49.490;10.908;2023-10-19T06:52:40;6.23;;;5.73;;
9445;SDS011;4761;49.490;10.908;2023-10-19T06:55:07;6.80;;;6.10;;
9445;SDS011;4761;49.490;10.908;2023-10-19T06:57:45;6.77;;;6.17;;
9445;SDS011;4761;49.490;10.908;2023-10-19T07:00:15;5.80;;;5.30;;
9445;SDS011;4761;49.490;10.908;2023-10-19T07:02:44;6.43;;;5.83;;
9445;SDS011;4761;49.490;10.908;2023-10-19T07:05:11;6.33;;;5.73;;
9445;SDS011;4761;49.490;10.908;2023-10-19T07:07:39;6.37;;;5.60;;
9445;SDS011;4761;49.490;10.908;2023-10-19T07:10:07;6.63;;;6.03;;
9445;SDS011;4761;49.490;10.908;2023-10-19T07:12:34;6.10;;;5.50;;
9445;SDS011;4761;49.490;10.908;2023-10-19T07:15:05;6.43;;;5.87;;
9445;SDS011;4761;49.490;10.908;2023-10-19T07:17:32;6.20;;;5.60;;
9445;SDS011;4761;49.490;10.908;2023-10-19T07:19:59;6.27;;;5.77;;
9445;SDS011;4761;49.490;10.908;2023-10-19T07:22:25;7.43;;;5.83;;
9445;SDS011;4761;49.490;10.908;2023-10-19T07:24:50;6.03;;;5.53;;
9445;SDS011;4761;49.490;10.908;2023-10-19T07:27:16;6.13;;;5.60;;
9445;SDS011;4761;49.490;10.908;2023-10-19T07:29:44;6.10;;;5.60;;
9445;SDS011;4761;49.490;10.908;2023-10-19T07:32:10;6.07;;;5.40;;
9445;SDS011;4761;49.490;10.908;2023-10-19T07:34:41;5.93;;;5.43;;
9445;SDS011;4761;49.490;10.908;2023-10-19T07:37:09;6.83;;;6.20;;
9445;SDS011;4761;49.490;10.908;2023-10-19T07:39:40;6.17;;;5.67;;
9445;SDS011;4761;49.490;10.908;2023-10-19T07:42:09;6.60;;;6.00;;
9445;SDS011;4761;49.490;10.908;2023-10-19T07:44:36;6.60;;;5.97;;
9445;SDS011;4761;49.490;10.908;2023-10-19T07:47:02;6.13;;;5.60;;
9445;SDS011;4761;49.490;10.908;2023-10-19T07:49:27;6.33;;;5.73;;
9445;SDS011;4761;49.490;10.908;2023-10-19T07:51:53;6.33;;;5.83;;
9445;SDS011;4761;49.490;10.908;2023-10-19T07:54:19;6.33;;;5.73;;
9445;SDS011;4761;49.490;10.908;2023-10-19T07:56:45;6.80;;;5.77;;
9445;SDS011;4761;49.490;10.908;2023-10-19T07:59:11;6.07;;;5.47;;
9445;SDS011;4761;49.490;10.908;2023-10-19T08:01:37;6.80;;;6.10;;
9445;SDS011;4761;49.490;10.908;2023-10-19T08:04:03;6.47;;;5.87;;
9445;SDS011;4761;49.490;10.908;2023-10-19T08:06:30;6.83;;;6.20;;
9445;SDS011;4761;49.490;10.908;2023-10-19T08:08:56;6.70;;;6.10;;
9445;SDS011;4761;49.490;10.908;2023-10-19T08:11:22;6.60;;;6.00;;
9445;SDS011;4761;49.490;10.908;2023-10-19T08:13:49;6.47;;;5.83;;
9445;SDS011;4761;49.490;10.908;2023-10-19T08:16:15;6.47;;;5.87;;
9445;SDS011;4761;49.490;10.908;2023-10-19T08:18:41;6.63;;;5.93;;
9445;SDS011;4761;49.490;10.908;2023-10-19T08:21:09;6.67;;;6.07;;
9445;SDS011;4761;49.490;10.908;2023-10-19T08:23:35;6.50;;;5.27;;
9445;SDS011;4761;49.490;10.908;2023-10-19T08:26:02;9.60;;;5.10;;
9445;SDS011;4761;49.490;10.908;2023-10-19T08:28:30;6.37;;;5.50;;
9445;SDS011;4761;49.490;10.908;2023-10-19T08:30:57;6.00;;;5.50;;
9445;SDS011;4761;49.490;10.908;2023-10-19T08:33:25;10.13;;;5.60;;
9445;SDS011;4761;49.490;10.908;2023-10-19T08:35:52;6.23;;;5.63;;
9445;SDS011;4761;49.490;10.908;2023-10-19T08:38:27;6.07;;;5.47;;
9445;SDS011;4761;49.490;10.908;2023-10-19T08:40:53;6.30;;;5.70;;
9445;SDS011;4761;49.490;10.908;2023-10-19T08:43:19;5.50;;;5.00;;
9445;SDS011;4761;49.490;10.908;2023-10-19T08:45:46;6.53;;;5.67;;
9445;SDS011;4761;49.490;10.908;2023-10-19T08:48:13;6.00;;;5.50;;
9445;SDS011;4761;49.490;10.908;2023-10-19T08:50:39;6.33;;;5.73;;
9445;SDS011;4761;49.490;10.908;2023-10-19T08:53:06;6.30;;;5.20;;
9445;SDS011;4761;49.490;10.908;2023-10-19T08:55:44;7.97;;;5.93;;
9445;SDS011;4761;49.490;10.908;2023-10-19T08:58:10;7.80;;;6.10;;
9445;SDS011;4761;49.490;10.908;2023-10-19T09:03:16;6.23;;;5.63;;
9445;SDS011;4761;49.490;10.908;2023-10-19T09:05:42;6.17;;;5.57;;
9445;SDS011;4761;49.490;10.908;2023-10-19T09:08:13;6.37;;;5.80;;
9445;SDS011;4761;49.490;10.908;2023-10-19T09:10:43;6.20;;;5.57;;
9445;SDS011;4761;49.490;10.908;2023-10-19T09:13:13;7.00;;;6.30;;
9445;SDS011;4761;49.490;10.908;2023-10-19T09:15:43;6.50;;;5.90;;
9445;SDS011;4761;49.490;10.908;2023-10-19T09:18:12;7.03;;;6.20;;
9445;SDS011;4761;49.490;10.908;2023-10-19T09:20:39;7.40;;;6.70;;
9445;SDS011;4761;49.490;10.908;2023-10-19T09:23:06;6.73;;;5.70;;
9445;SDS011;4761;49.490;10.908;2023-10-19T09:25:32;7.17;;;6.43;;
9445;SDS011;4761;49.490;10.908;2023-10-19T09:28:00;7.67;;;6.60;;
9445;SDS011;4761;49.490;10.908;2023-10-19T09:30:27;6.60;;;6.00;;
9445;SDS011;4761;49.490;10.908;2023-10-19T09:32:56;6.93;;;6.27;;
9445;SDS011;4761;49.490;10.908;2023-10-19T09:35:22;7.27;;;6.47;;
9445;SDS011;4761;49.490;10.908;2023-10-19T09:37:52;6.30;;;5.70;;
9445;SDS011;4761;49.490;10.908;2023-10-19T09:40:21;7.93;;;6.20;;
9445;SDS011;4761;49.490;10.908;2023-10-19T09:42:49;6.63;;;6.00;;
9445;SDS011;4761;49.490;10.908;2023-10-19T09:45:21;7.07;;;6.30;;
9445;SDS011;4761;49.490;10.908;2023-10-19T09:47:53;6.73;;;6.13;;
9445;SDS011;4761;49.490;10.908;2023-10-19T09:50:19;7.13;;;6.37;;
9445;SDS011;4761;49.490;10.908;2023-10-19T09:52:45;7.73;;;6.87;;
9445;SDS011;4761;49.490;10.908;2023-10-19T09:55:17;8.47;;;6.33;;
9445;SDS011;4761;49.490;10.908;2023-10-19T09:57:58;6.70;;;6.03;;
9445;SDS011;4761;49.490;10.908;2023-10-19T10:00:28;8.07;;;6.03;;
9445;SDS011;4761;49.490;10.908;2023-10-19T10:02:56;6.97;;;6.27;;
9445;SDS011;4761;49.490;10.908;2023-10-19T10:10:48;6.37;;;5.77;;
9445;SDS011;4761;49.490;10.908;2023-10-19T10:15:55;6.73;;;6.10;;
9445;SDS011;4761;49.490;10.908;2023-10-19T10:18:25;8.80;;;6.30;;
9445;SDS011;4761;49.490;10.908;2023-10-19T10:23:44;7.07;;;6.37;;
9445;SDS011;4761;49.490;10.908;2023-10-19T10:26:29;7.13;;;6.00;;
9445;SDS011;4761;49.490;10.908;2023-10-19T10:29:17;6.70;;;6.10;;
9445;SDS011;4761;49.490;10.908;2023-10-19T10:31:49;6.50;;;5.73;;
9445;SDS011;4761;49.490;10.908;2023-10-19T10:37:08;5.93;;;5.37;;
9445;SDS011;4761;49.490;10.908;2023-10-19T10:39:39;6.50;;;5.90;;
9445;SDS011;4761;49.490;10.908;2023-10-19T10:42:09;6.70;;;5.70;;
9445;SDS011;4761;49.490;10.908;2023-10-19T10:47:21;6.40;;;5.80;;
9445;SDS011;4761;49.490;10.908;2023-10-19T10:49:59;6.70;;;6.00;;
9445;SDS011;4761;49.490;10.908;2023-10-19T10:52:29;6.47;;;5.83;;
9445;SDS011;4761;49.490;10.908;2023-10-19T10:54:56;6.50;;;5.90;;
9445;SDS011;4761;49.490;10.908;2023-10-19T10:57:22;6.23;;;5.67;;
9445;SDS011;4761;49.490;10.908;2023-10-19T11:00:00;6.13;;;5.53;;
9445;SDS011;4761;49.490;10.908;2023-10-19T11:02:26;6.67;;;6.03;;
9445;SDS011;4761;49.490;10.908;2023-10-19T11:04:51;6.30;;;5.70;;
9445;SDS011;4761;49.490;10.908;2023-10-19T11:07:17;5.60;;;5.10;;
9445;SDS011;4761;49.490;10.908;2023-10-19T11:09:45;6.03;;;5.53;;
9445;SDS011;4761;49.490;10.908;2023-10-19T11:12:12;6.10;;;5.50;;
9445;SDS011;4761;49.490;10.908;2023-10-19T11:14:51;6.50;;;5.83;;
9445;SDS011;4761;49.490;10.908;2023-10-19T11:17:18;7.90;;;5.73;;
9445;SDS011;4761;49.490;10.908;2023-10-19T11:19:44;6.37;;;5.77;;
9445;SDS011;4761;49.490;10.908;2023-10-19T11:22:09;6.33;;;5.67;;
9445;SDS011;4761;49.490;10.908;2023-10-19T11:24:36;5.80;;;5.30;;
9445;SDS011;4761;49.490;10.908;2023-10-19T11:27:05;6.20;;;5.60;;
9445;SDS011;4761;49.490;10.908;2023-10-19T11:29:32;5.73;;;5.23;;
9445;SDS011;4761;49.490;10.908;2023-10-19T11:32:01;5.90;;;5.40;;
9445;SDS011;4761;49.490;10.908;2023-10-19T11:34:27;6.10;;;5.57;;
9445;SDS011;4761;49.490;10.908;2023-10-19T11:36:56;5.93;;;5.43;;
9445;SDS011;4761;49.490;10.908;2023-10-19T11:39:22;6.20;;;5.60;;
9445;SDS011;4761;49.490;10.908;2023-10-19T11:41:51;7.15;;;5.68;;
9445;SDS011;4761;49.490;10.908;2023-10-19T11:44:18;5.67;;;5.07;;
9445;SDS011;4761;49.490;10.908;2023-10-19T11:46:44;5.57;;;5.07;;
9445;SDS011;4761;49.490;10.908;2023-10-19T11:49:10;6.30;;;5.40;;
9445;SDS011;4761;49.490;10.908;2023-10-19T11:51:36;5.85;;;5.35;;
9445;SDS011;4761;49.490;10.908;2023-10-19T11:54:04;5.70;;;5.20;;
9445;SDS011;4761;49.490;10.908;2023-10-19T11:56:31;5.97;;;5.47;;
9445;SDS011;4761;49.490;10.908;2023-10-19T11:58:57;5.93;;;5.33;;
9445;SDS011;4761;49.490;10.908;2023-10-19T12:01:22;5.83;;;5.33;;
9445;SDS011;4761;49.490;10.908;2023-10-19T12:03:50;5.50;;;5.00;;
9445;SDS011;4761;49.490;10.908;2023-10-19T12:06:16;5.53;;;5.03;;
9445;SDS011;4761;49.490;10.908;2023-10-19T12:08:44;5.63;;;5.13;;
9445;SDS011;4761;49.490;10.908;2023-10-19T12:11:10;5.50;;;4.63;;
9445;SDS011;4761;49.490;10.908;2023-10-19T12:13:43;5.53;;;5.07;;
9445;SDS011;4761;49.490;10.908;2023-10-19T12:16:09;5.40;;;4.90;;
9445;SDS011;4761;49.490;10.908;2023-10-19T12:18:38;4.10;;;3.70;;
9445;SDS011;4761;49.490;10.908;2023-10-19T12:21:04;9.80;;;4.30;;
9445;SDS011;4761;49.490;10.908;2023-10-19T12:23:33;11.17;;;4.50;;
9445;SDS011;4761;49.490;10.908;2023-10-19T12:25:58;8.40;;;4.23;;
9445;SDS011;4761;49.490;10.908;2023-10-19T12:28:29;7.50;;;4.70;;
9445;SDS011;4761;49.490;10.908;2023-10-19T12:30:54;7.57;;;4.80;;
9445;SDS011;4761;49.490;10.908;2023-10-19T12:33:21;4.85;;;4.35;;
9445;SDS011;4761;49.490;10.908;2023-10-19T12:35:46;4.40;;;4.00;;
9445;SDS011;4761;49.490;10.908;2023-10-19T12:38:22;5.70;;;4.37;;
9445;SDS011;4761;49.490;10.908;2023-10-19T12:40:49;4.97;;;4.17;;
9445;SDS011;4761;49.490;10.908;2023-10-19T12:43:19;5.73;;;5.00;;
9445;SDS011;4761;49.490;10.908;2023-10-19T12:45:47;5.13;;;4.40;;
9445;SDS011;4761;49.490;10.908;2023-10-19T12:48:19;5.30;;;4.80;;
9445;SDS011;4761;49.490;10.908;2023-10-19T12:50:55;6.70;;;4.67;;
9445;SDS011;4761;49.490;10.908;2023-10-19T12:53:20;4.83;;;4.30;;
9445;SDS011;4761;49.490;10.908;2023-10-19T12:55:49;5.32;;;4.78;;
9445;SDS011;4761;49.490;10.908;2023-10-19T12:58:15;5.33;;;4.50;;
9445;SDS011;4761;49.490;10.908;2023-10-19T13:00:44;7.03;;;4.20;;
9445;SDS011;4761;49.490;10.908;2023-10-19T13:03:12;4.80;;;4.30;;
9445;SDS011;4761;49.490;10.908;2023-10-19T13:05:41;4.30;;;3.90;;
9445;SDS011;4761;49.490;10.908;2023-10-19T13:08:09;5.00;;;4.50;;
9445;SDS011;4761;49.490;10.908;2023-10-19T13:10:40;4.82;;;4.30;;
9445;SDS011;4761;49.490;10.908;2023-10-19T13:13:10;4.40;;;3.90;;
9445;SDS011;4761;49.490;10.908;2023-10-19T13:15:37;4.47;;;4.03;;
9445;SDS011;4761;49.490;10.908;2023-10-19T13:18:05;4.30;;;3.90;;
9445;SDS011;4761;49.490;10.908;2023-10-19T13:20:32;5.85;;;4.15;;
9445;SDS011;4761;49.490;10.908;2023-10-19T13:23:01;4.60;;;4.20;;
9445;SDS011;4761;49.490;10.908;2023-10-19T13:25:28;5.05;;;4.35;;
9445;SDS011;4761;49.490;10.908;2023-10-19T13:28:11;4.63;;;4.13;;
9445;SDS011;4761;49.490;10.908;2023-10-19T13:30:38;5.95;;;4.13;;
9445;SDS011;4761;49.490;10.908;2023-10-19T13:33:08;7.30;;;4.50;;
9445;SDS011;4761;49.490;10.908;2023-10-19T13:35:35;5.18;;;4.30;;
9445;SDS011;4761;49.490;10.908;2023-10-19T13:38:02;5.60;;;4.45;;
9445;SDS011;4761;49.490;10.908;2023-10-19T13:40:29;6.50;;;4.35;;
9445;SDS011;4761;49.490;10.908;2023-10-19T13:42:58;4.93;;;4.43;;
9445;SDS011;4761;49.490;10.908;2023-10-19T13:45:24;4.80;;;4.28;;
9445;SDS011;4761;49.490;10.908;2023-10-19T13:47:49;5.88;;;4.80;;
9445;SDS011;4761;49.490;10.908;2023-10-19T13:50:19;5.65;;;4.47;;
9445;SDS011;4761;49.490;10.908;2023-10-19T13:52:51;4.35;;;3.95;;
9445;SDS011;4761;49.490;10.908;2023-10-19T13:55:21;4.88;;;4.03;;
9445;SDS011;4761;49.490;10.908;2023-10-19T13:57:48;8.10;;;4.10;;
9445;SDS011;4761;49.490;10.908;2023-10-19T14:00:14;7.70;;;4.10;;
9445;SDS011;4761;49.490;10.908;2023-10-19T14:02:45;5.32;;;3.90;;
9445;SDS011;4761;49.490;10.908;2023-10-19T14:05:14;6.75;;;4.32;;
9445;SDS011;4761;49.490;10.908;2023-10-19T14:07:40;5.18;;;4.40;;
9445;SDS011;4761;49.490;10.908;2023-10-19T14:10:06;4.57;;;3.88;;
9445;SDS011;4761;49.490;10.908;2023-10-19T14:12:37;5.60;;;4.60;;
9445;SDS011;4761;49.490;10.908;2023-10-19T14:15:03;4.38;;;3.80;;
9445;SDS011;4761;49.490;10.908;2023-10-19T14:17:28;5.13;;;4.32;;
9445;SDS011;4761;49.490;10.908;2023-10-19T14:19:55;5.57;;;4.30;;
9445;SDS011;4761;49.490;10.908;2023-10-19T14:22:20;4.85;;;4.38;;
9445;SDS011;4761;49.490;10.908;2023-10-19T14:24:46;4.60;;;3.75;;
9445;SDS011;4761;49.490;10.908;2023-10-19T14:27:11;5.05;;;4.30;;
9445;SDS011;4761;49.490;10.908;2023-10-19T14:29:38;4.78;;;4.28;;
9445;SDS011;4761;49.490;10.908;2023-10-19T14:32:04;4.82;;;4.30;;
9445;SDS011;4761;49.490;10.908;2023-10-19T14:34:29;4.95;;;4.45;;
9445;SDS011;4761;49.490;10.908;2023-10-19T14:36:55;4.60;;;4.10;;
9445;SDS011;4761;49.490;10.908;2023-10-19T14:39:20;4.90;;;4.40;;
9445;SDS011;4761;49.490;10.908;2023-10-19T14:41:46;5.38;;;4.30;;
9445;SDS011;4761;49.490;10.908;2023-10-19T14:44:12;4.93;;;4.43;;
9445;SDS011;4761;49.490;10.908;2023-10-19T14:46:37;4.90;;;4.40;;
9445;SDS011;4761;49.490;10.908;2023-10-19T14:49:03;6.35;;;4.78;;
9445;SDS011;4761;49.490;10.908;2023-10-19T14:51:28;5.35;;;4.75;;
9445;SDS011;4761;49.490;10.908;2023-10-19T14:53:55;4.63;;;4.22;;
9445;SDS011;4761;49.490;10.908;2023-10-19T14:56:20;4.55;;;4.18;;
9445;SDS011;4761;49.490;10.908;2023-10-19T14:58:46;5.07;;;4.57;;
9445;SDS011;4761;49.490;10.908;2023-10-19T15:01:12;5.13;;;4.63;;
9445;SDS011;4761;49.490;10.908;2023-10-19T15:03:42;5.82;;;4.57;;
9445;SDS011;4761;49.490;10.908;2023-10-19T15:06:08;5.35;;;4.85;;
9445;SDS011;4761;49.490;10.908;2023-10-19T15:08:33;5.25;;;4.75;;
9445;SDS011;4761;49.490;10.908;2023-10-19T15:10:59;5.10;;;4.60;;
9445;SDS011;4761;49.490;10.908;2023-10-19T15:13:25;5.22;;;4.70;;
9445;SDS011;4761;49.490;10.908;2023-10-19T15:15:51;5.10;;;4.60;;
9445;SDS011;4761;49.490;10.908;2023-10-19T15:18:17;5.43;;;4.93;;
9445;SDS011;4761;49.490;10.908;2023-10-19T15:20:43;5.45;;;4.47;;
9445;SDS011;4761;49.490;10.908;2023-10-19T15:23:09;6.60;;;4.70;;
9445;SDS011;4761;49.490;10.908;2023-10-19T15:25:36;5.47;;;4.97;;
9445;SDS011;4761;49.490;10.908;2023-10-19T15:28:02;5.05;;;4.55;;
9445;SDS011;4761;49.490;10.908;2023-10-19T15:30:27;5.07;;;4.63;;
9445;SDS011;4761;49.490;10.908;2023-10-19T15:32:53;6.35;;;4.78;;